Time;durP1;ratioP1;P1;durP2;ratioP2;P2;SDS_P1;SDS_P2;PMS_P1;PMS_P2;Temp;Humidity;BMP_temperature;BMP_pressure;BME280_temperature;BME280_humidity;BME280_pressure;Samples;Min_cycle;Max_cycle;Signal;HPM_P1;HPM_P2
2023/07/10 00:01:47;;;;;;;3.60;3.30;;;;;;;;;;4729253;30;20110;-75
2023/07/10 00:04:18;;;;;;;3.30;3.00;;;;;;;;;;4732413;30;20124;-74
2023/07/10 00:06:46;;;;;;;3.70;3.40;;;;;;;;;;4726985;30;20400;-75
2023/07/10 00:09:14;;;;;;;3.78;3.47;;;;;;;;;;4729193;30;20128;-75
2023/07/10 00:11:42;;;;;;;3.70;3.40;;;;;;;;;;4734619;30;20163;-75
2023/07/10 00:14:18;;;;;;;3.83;3.53;;;;;;;;;;4728770;30;20057;-75
2023/07/10 00:16:45;;;;;;;3.40;3.20;;;;;;;;;;4727602;30;20088;-77
2023/07/10 00:19:14;;;;;;;3.83;3.53;;;;;;;;;;4732181;30;20048;-75
2023/07/10 00:21:41;;;;;;;3.70;3.40;;;;;;;;;;4726497;30;20138;-75
2023/07/10 00:24:09;;;;;;;3.42;3.22;;;;;;;;;;4734731;30;20119;-74
2023/07/10 00:26:37;;;;;;;3.55;3.30;;;;;;;;;;4731071;30;20072;-75
2023/07/10 00:29:14;;;;;;;3.53;3.33;;;;;;;;;;4727860;30;20142;-75
2023/07/10 00:31:42;;;;;;;3.97;3.67;;;;;;;;;;4735293;30;20067;-75
2023/07/10 00:34:14;;;;;;;3.92;3.53;;;;;;;;;;4730386;30;20053;-76
2023/07/10 00:36:43;;;;;;;3.75;3.45;;;;;;;;;;4728624;30;20052;-74
2023/07/10 00:39:29;;;;;;;4.13;3.72;;;;;;;;;;4729291;30;20084;-74
2023/07/10 00:42:02;;;;;;;3.70;3.40;;;;;;;;;;4730119;30;20427;-74
2023/07/10 00:44:37;;;;;;;4.45;4.15;;;;;;;;;;4729453;30;20083;-75
2023/07/10 00:47:25;;;;;;;4.45;4.05;;;;;;;;;;4729348;30;20564;-74
2023/07/10 00:49:59;;;;;;;4.05;3.58;;;;;;;;;;4731108;30;20084;-74
2023/07/10 00:52:29;;;;;;;3.70;3.40;;;;;;;;;;4720888;30;20065;-76
2023/07/10 00:54:58;;;;;;;3.85;3.50;;;;;;;;;;4728635;30;20067;-75
2023/07/10 00:57:34;;;;;;;3.67;3.38;;;;;;;;;;4731092;30;20060;-74
2023/07/10 01:00:14;;;;;;;3.70;3.40;;;;;;;;;;4733573;30;20049;-74
2023/07/10 01:02:42;;;;;;;3.50;3.30;;;;;;;;;;4728282;30;20547;-74
2023/07/10 01:05:10;;;;;;;3.65;3.35;;;;;;;;;;4730268;30;20060;-74
2023/07/10 01:07:40;;;;;;;3.85;3.55;;;;;;;;;;4728802;30;20048;-75
2023/07/10 01:10:10;;;;;;;3.45;3.15;;;;;;;;;;4726455;30;20060;-73
2023/07/10 01:12:38;;;;;;;3.78;3.47;;;;;;;;;;4728604;30;20048;-74
2023/07/10 01:15:06;;;;;;;3.85;3.53;;;;;;;;;;4732123;30;20144;-76
2023/07/10 01:17:34;;;;;;;5.07;3.90;;;;;;;;;;4726107;30;20359;-74
2023/07/10 01:20:04;;;;;;;3.92;3.63;;;;;;;;;;4731954;30;20168;-74
2023/07/10 01:22:32;;;;;;;4.22;3.83;;;;;;;;;;4722493;30;20049;-75
2023/07/10 01:25:00;;;;;;;4.50;4.10;;;;;;;;;;4731004;30;20566;-75
2023/07/10 01:27:28;;;;;;;3.50;3.20;;;;;;;;;;4730993;30;20144;-75
2023/07/10 01:30:07;;;;;;;4.18;3.83;;;;;;;;;;4732330;30;20531;-75
2023/07/10 01:32:35;;;;;;;3.50;3.30;;;;;;;;;;4721285;30;20053;-77
2023/07/10 01:35:05;;;;;;;3.83;3.63;;;;;;;;;;4737149;30;20052;-77
2023/07/10 01:37:32;;;;;;;4.47;4.07;;;;;;;;;;4741163;30;20056;-74
2023/07/10 01:40:02;;;;;;;3.47;3.28;;;;;;;;;;4734291;30;20052;-75
2023/07/10 01:42:30;;;;;;;3.67;3.47;;;;;;;;;;4731171;30;20520;-75
2023/07/10 01:44:58;;;;;;;3.72;3.53;;;;;;;;;;4738061;30;20490;-74
2023/07/10 01:47:25;;;;;;;3.65;3.35;;;;;;;;;;4726403;30;20060;-76
2023/07/10 01:49:55;;;;;;;3.72;3.45;;;;;;;;;;4733718;30;20051;-75
2023/07/10 01:52:23;;;;;;;3.50;3.30;;;;;;;;;;4740995;30;20059;-75
2023/07/10 01:54:51;;;;;;;4.43;3.55;;;;;;;;;;4728954;30;20130;-75
2023/07/10 01:57:23;;;;;;;3.55;3.25;;;;;;;;;;4726562;30;20119;-75
2023/07/10 01:59:52;;;;;;;4.35;3.50;;;;;;;;;;4726067;30;20491;-75
2023/07/10 02:02:19;;;;;;;4.07;3.75;;;;;;;;;;4727125;30;20049;-75
2023/07/10 02:04:47;;;;;;;3.97;3.67;;;;;;;;;;4731291;30;20184;-75
2023/07/10 02:07:14;;;;;;;3.90;3.60;;;;;;;;;;4728078;30;20078;-76
2023/07/10 02:09:41;;;;;;;4.30;3.90;;;;;;;;;;4729610;30;20124;-76
2023/07/10 02:12:09;;;;;;;3.95;3.65;;;;;;;;;;4731194;30;20124;-76
2023/07/10 02:14:37;;;;;;;4.00;3.70;;;;;;;;;;4729481;30;20052;-77
2023/07/10 02:17:05;;;;;;;4.25;3.95;;;;;;;;;;4733143;30;20534;-76
2023/07/10 02:19:32;;;;;;;4.63;4.22;;;;;;;;;;4734559;30;20435;-76
2023/07/10 02:21:59;;;;;;;3.80;3.50;;;;;;;;;;4731138;30;20045;-75
2023/07/10 02:24:27;;;;;;;4.38;3.90;;;;;;;;;;4726320;30;20053;-76
2023/07/10 02:26:54;;;;;;;4.15;3.85;;;;;;;;;;4728845;30;20052;-77
2023/07/10 02:29:22;;;;;;;4.20;3.90;;;;;;;;;;4735342;30;20061;-75
2023/07/10 02:31:52;;;;;;;4.85;4.38;;;;;;;;;;4726228;30;20135;-77
2023/07/10 02:34:20;;;;;;;4.13;3.72;;;;;;;;;;4730071;30;20059;-75
2023/07/10 02:36:47;;;;;;;4.30;4.00;;;;;;;;;;4741153;30;20429;-75
2023/07/10 02:39:15;;;;;;;3.95;3.67;;;;;;;;;;4729161;30;20062;-76
2023/07/10 02:41:42;;;;;;;4.88;4.47;;;;;;;;;;4729678;30;20064;-76
2023/07/10 02:44:09;;;;;;;4.47;4.10;;;;;;;;;;4726904;30;20056;-76
2023/07/10 02:46:37;;;;;;;4.35;4.05;;;;;;;;;;4725673;30;20578;-76
2023/07/10 02:49:05;;;;;;;4.22;3.80;;;;;;;;;;4723874;30;20056;-76
2023/07/10 02:51:32;;;;;;;4.50;4.20;;;;;;;;;;4726395;30;20127;-77
2023/07/10 02:54:07;;;;;;;4.22;3.92;;;;;;;;;;4723651;30;20053;-77
2023/07/10 02:56:35;;;;;;;3.95;3.65;;;;;;;;;;4726123;30;20060;-76
2023/07/10 02:59:02;;;;;;;4.30;3.90;;;;;;;;;;4728704;30;20081;-76
2023/07/10 03:01:29;;;;;;;4.30;4.00;;;;;;;;;;4725095;30;20053;-76
2023/07/10 03:03:57;;;;;;;4.07;3.78;;;;;;;;;;4727673;30;20048;-76
2023/07/10 03:06:25;;;;;;;4.50;4.20;;;;;;;;;;4723898;30;20053;-75
2023/07/10 03:08:53;;;;;;;4.47;4.18;;;;;;;;;;4722948;30;20535;-75
2023/07/10 03:11:21;;;;;;;5.10;4.60;;;;;;;;;;4730697;30;20064;-76
2023/07/10 03:13:48;;;;;;;4.65;4.35;;;;;;;;;;4727555;30;20520;-77
2023/07/10 03:16:16;;;;;;;5.22;4.50;;;;;;;;;;4724954;30;20061;-76
2023/07/10 03:18:44;;;;;;;4.63;4.32;;;;;;;;;;4728692;30;20072;-76
2023/07/10 03:21:11;;;;;;;5.15;4.45;;;;;;;;;;4720928;30;20080;-76
2023/07/10 03:23:39;;;;;;;4.82;4.53;;;;;;;;;;4735112;30;20069;-75
2023/07/10 03:26:06;;;;;;;4.97;4.57;;;;;;;;;;4729030;30;20118;-76
2023/07/10 03:28:35;;;;;;;4.80;4.40;;;;;;;;;;4725842;30;20116;-76
2023/07/10 03:31:03;;;;;;;4.72;4.35;;;;;;;;;;4727652;30;20053;-75
2023/07/10 03:33:32;;;;;;;4.28;3.90;;;;;;;;;;4728213;30;20048;-75
2023/07/10 03:36:05;;;;;;;4.97;4.47;;;;;;;;;;4730485;30;20048;-75
2023/07/10 03:38:33;;;;;;;4.05;3.70;;;;;;;;;;4728797;30;20061;-75
2023/07/10 03:41:01;;;;;;;4.18;3.88;;;;;;;;;;4725172;30;20053;-76
2023/07/10 03:43:29;;;;;;;4.30;3.97;;;;;;;;;;4726924;30;20083;-75
2023/07/10 03:45:56;;;;;;;4.43;4.13;;;;;;;;;;4727063;30;20136;-75
2023/07/10 03:48:24;;;;;;;5.10;4.60;;;;;;;;;;4721803;30;20044;-75
2023/07/10 03:50:51;;;;;;;4.57;4.22;;;;;;;;;;4726870;30;20067;-78
2023/07/10 03:53:19;;;;;;;4.40;4.10;;;;;;;;;;4726292;30;20052;-75
2023/07/10 03:55:49;;;;;;;4.80;4.40;;;;;;;;;;4723304;30;20057;-76
2023/07/10 03:58:25;;;;;;;4.45;4.15;;;;;;;;;;4720982;30;20065;-75
2023/07/10 04:00:53;;;;;;;4.80;4.40;;;;;;;;;;4727540;30;20052;-75
2023/07/10 04:03:22;;;;;;;4.90;4.50;;;;;;;;;;4725726;30;20139;-76
2023/07/10 04:05:52;;;;;;;4.50;4.10;;;;;;;;;;4722145;30;20078;-76
2023/07/10 04:08:21;;;;;;;4.90;4.60;;;;;;;;;;4727170;30;20101;-75
2023/07/10 04:10:52;;;;;;;5.15;4.75;;;;;;;;;;4723828;30;20057;-76
2023/07/10 04:13:20;;;;;;;4.80;4.50;;;;;;;;;;4727257;30;20056;-75
2023/07/10 04:15:58;;;;;;;4.57;4.28;;;;;;;;;;4727122;30;20130;-75
2023/07/10 04:18:32;;;;;;;4.97;4.57;;;;;;;;;;4726990;30;20052;-75
2023/07/10 04:21:01;;;;;;;4.88;4.47;;;;;;;;;;4721895;30;20056;-76
2023/07/10 04:23:29;;;;;;;4.25;3.95;;;;;;;;;;4719457;30;20352;-76
2023/07/10 04:25:57;;;;;;;4.43;4.13;;;;;;;;;;4720977;30;20065;-75
2023/07/10 04:28:24;;;;;;;4.45;4.10;;;;;;;;;;4725843;30;20339;-75
2023/07/10 04:30:53;;;;;;;5.10;4.70;;;;;;;;;;4726481;30;20064;-75
2023/07/10 04:33:21;;;;;;;4.28;3.97;;;;;;;;;;4722294;30;20060;-76
2023/07/10 04:35:54;;;;;;;4.68;4.38;;;;;;;;;;4721885;30;20057;-75
2023/07/10 04:38:23;;;;;;;4.60;4.28;;;;;;;;;;4731667;30;20060;-76
2023/07/10 04:40:51;;;;;;;4.45;3.95;;;;;;;;;;4734428;30;20060;-77
2023/07/10 04:43:19;;;;;;;4.90;4.50;;;;;;;;;;4728070;30;20083;-74
2023/07/10 04:45:46;;;;;;;5.07;4.68;;;;;;;;;;4724989;30;20056;-74
2023/07/10 04:48:13;;;;;;;4.45;4.15;;;;;;;;;;4725574;30;20053;-76
2023/07/10 04:50:44;;;;;;;5.20;4.80;;;;;;;;;;4726136;30;20057;-77
2023/07/10 04:53:12;;;;;;;4.78;4.47;;;;;;;;;;4718112;30;20159;-77
2023/07/10 04:55:39;;;;;;;5.57;4.47;;;;;;;;;;4734220;30;20459;-76
2023/07/10 04:58:07;;;;;;;5.38;4.95;;;;;;;;;;4726356;30;20056;-77
2023/07/10 05:00:35;;;;;;;4.40;4.10;;;;;;;;;;4729730;30;20052;-77
2023/07/10 05:03:03;;;;;;;4.88;4.50;;;;;;;;;;4725758;30;20259;-76
2023/07/10 05:05:31;;;;;;;4.20;3.88;;;;;;;;;;4729094;30;20625;-75
2023/07/10 05:07:58;;;;;;;4.50;4.20;;;;;;;;;;4736481;30;20052;-76
2023/07/10 05:10:26;;;;;;;4.50;4.10;;;;;;;;;;4744976;30;20056;-75
2023/07/10 05:12:54;;;;;;;4.93;4.53;;;;;;;;;;4730299;30;20106;-76
2023/07/10 05:15:21;;;;;;;5.20;4.80;;;;;;;;;;4726852;30;20068;-76
2023/07/10 05:17:48;;;;;;;4.60;4.30;;;;;;;;;;4730096;30;20534;-75
2023/07/10 05:20:16;;;;;;;4.72;4.35;;;;;;;;;;4726149;30;20060;-76
2023/07/10 05:22:43;;;;;;;4.40;4.10;;;;;;;;;;4728723;30;20052;-78
2023/07/10 05:25:11;;;;;;;4.63;4.32;;;;;;;;;;4720318;30;20056;-75
2023/07/10 05:27:39;;;;;;;4.13;3.80;;;;;;;;;;4722745;30;20538;-76
2023/07/10 05:30:06;;;;;;;4.40;4.00;;;;;;;;;;4730793;30;20115;-76
2023/07/10 05:32:34;;;;;;;4.97;4.60;;;;;;;;;;4720386;30;20060;-77
2023/07/10 05:35:01;;;;;;;4.20;3.90;;;;;;;;;;4728636;30;20151;-76
2023/07/10 05:37:30;;;;;;;4.22;3.92;;;;;;;;;;4726671;30;20044;-76
2023/07/10 05:39:57;;;;;;;4.03;3.70;;;;;;;;;;4730038;30;20059;-76
2023/07/10 05:42:25;;;;;;;4.72;4.30;;;;;;;;;;4727503;30;20052;-76
2023/07/10 05:44:52;;;;;;;4.80;4.50;;;;;;;;;;4730562;30;20125;-76
2023/07/10 05:47:19;;;;;;;4.07;3.78;;;;;;;;;;4734073;30;20076;-76
2023/07/10 05:49:47;;;;;;;4.00;3.70;;;;;;;;;;4727702;30;20048;-76
2023/07/10 05:52:15;;;;;;;4.43;4.13;;;;;;;;;;4729225;30;20136;-76
2023/07/10 05:54:42;;;;;;;4.60;4.30;;;;;;;;;;4724951;30;20049;-76
2023/07/10 05:57:10;;;;;;;4.50;4.10;;;;;;;;;;4729472;30;20049;-77
2023/07/10 05:59:37;;;;;;;3.85;3.65;;;;;;;;;;4728110;30;20122;-76
2023/07/10 06:02:05;;;;;;;4.50;4.20;;;;;;;;;;4727427;30;20056;-75
2023/07/10 06:04:32;;;;;;;5.40;4.40;;;;;;;;;;4723678;30;20048;-75
2023/07/10 06:07:00;;;;;;;4.88;4.38;;;;;;;;;;4724683;30;20057;-77
2023/07/10 06:09:27;;;;;;;5.10;4.60;;;;;;;;;;4724770;30;20076;-76
2023/07/10 06:11:54;;;;;;;5.10;4.60;;;;;;;;;;4725899;30;20213;-77
2023/07/10 06:14:22;;;;;;;5.10;4.70;;;;;;;;;;4723597;30;20091;-77
2023/07/10 06:16:49;;;;;;;6.22;5.38;;;;;;;;;;4725098;30;20064;-76
2023/07/10 06:19:17;;;;;;;5.45;4.95;;;;;;;;;;4725385;30;20459;-77
2023/07/10 06:21:46;;;;;;;5.43;4.97;;;;;;;;;;4721479;30;20151;-76
2023/07/10 06:24:13;;;;;;;5.82;5.35;;;;;;;;;;4722181;30;20056;-77
2023/07/10 06:26:41;;;;;;;5.55;5.15;;;;;;;;;;4716526;30;20052;-76
2023/07/10 06:29:08;;;;;;;5.70;5.30;;;;;;;;;;4719422;30;20076;-76
2023/07/10 06:31:35;;;;;;;5.32;4.90;;;;;;;;;;4718125;30;20142;-78
2023/07/10 06:34:03;;;;;;;5.30;4.90;;;;;;;;;;4722967;30;20417;-76
2023/07/10 06:36:30;;;;;;;5.43;4.97;;;;;;;;;;4721986;30;20106;-76
2023/07/10 06:38:58;;;;;;;5.30;4.90;;;;;;;;;;4729972;30;20083;-76
2023/07/10 06:41:27;;;;;;;5.32;4.93;;;;;;;;;;4725918;30;20059;-77
2023/07/10 06:43:55;;;;;;;5.03;4.63;;;;;;;;;;4727829;30;20056;-76
2023/07/10 06:46:24;;;;;;;4.95;4.55;;;;;;;;;;4720375;30;20056;-76
2023/07/10 06:48:55;;;;;;;4.75;4.35;;;;;;;;;;4720805;30;20580;-76
2023/07/10 06:51:22;;;;;;;4.72;4.35;;;;;;;;;;4722226;30;20114;-76
2023/07/10 06:53:50;;;;;;;5.53;4.88;;;;;;;;;;4720246;30;20162;-76
2023/07/10 06:56:17;;;;;;;4.95;4.45;;;;;;;;;;4721705;30;20459;-77
2023/07/10 06:58:45;;;;;;;4.50;4.20;;;;;;;;;;4724573;30;20084;-77
2023/07/10 07:01:12;;;;;;;4.53;4.13;;;;;;;;;;4721112;30;20065;-77
2023/07/10 07:03:40;;;;;;;5.10;4.60;;;;;;;;;;4724510;30;20045;-76
2023/07/10 07:06:08;;;;;;;4.35;4.07;;;;;;;;;;4722185;30;20140;-76
2023/07/10 07:08:36;;;;;;;4.93;4.60;;;;;;;;;;4724208;30;20521;-77
2023/07/10 07:11:03;;;;;;;4.25;4.00;;;;;;;;;;4721110;30;20079;-76
2023/07/10 07:13:30;;;;;;;4.95;4.55;;;;;;;;;;4713857;30;20477;-76
2023/07/10 07:15:58;;;;;;;4.45;4.15;;;;;;;;;;4722947;30;20056;-75
2023/07/10 07:18:26;;;;;;;5.00;4.10;;;;;;;;;;4722783;30;20110;-75
2023/07/10 07:20:56;;;;;;;4.00;3.70;;;;;;;;;;4726082;30;20333;-76
2023/07/10 07:23:24;;;;;;;4.13;3.83;;;;;;;;;;4713903;30;20512;-75
2023/07/10 07:25:53;;;;;;;4.90;4.50;;;;;;;;;;4723967;30;20052;-76
2023/07/10 07:28:20;;;;;;;4.53;4.15;;;;;;;;;;4717855;30;20052;-75
2023/07/10 07:30:48;;;;;;;4.25;3.85;;;;;;;;;;4716836;30;20500;-75
2023/07/10 07:33:17;;;;;;;4.32;4.03;;;;;;;;;;4722132;30;20052;-76
2023/07/10 07:35:44;;;;;;;4.45;4.13;;;;;;;;;;4718621;30;20063;-75
2023/07/10 07:38:13;;;;;;;4.40;4.10;;;;;;;;;;4726295;30;20170;-76
2023/07/10 07:40:41;;;;;;;4.93;3.78;;;;;;;;;;4735931;30;20106;-75
2023/07/10 07:43:09;;;;;;;4.35;3.92;;;;;;;;;;4723337;30;20126;-75
2023/07/10 07:45:37;;;;;;;4.07;3.78;;;;;;;;;;4684922;30;1073182;-77
2023/07/10 07:48:04;;;;;;;4.50;4.10;;;;;;;;;;4716656;30;20118;-76
2023/07/10 07:50:31;;;;;;;4.45;4.10;;;;;;;;;;4726323;30;20369;-75
2023/07/10 07:52:59;;;;;;;4.50;3.90;;;;;;;;;;4724284;30;20127;-75
2023/07/10 07:55:26;;;;;;;4.20;3.90;;;;;;;;;;4723483;30;20088;-75
2023/07/10 07:57:54;;;;;;;4.15;3.85;;;;;;;;;;4726861;30;20106;-75
2023/07/10 08:00:21;;;;;;;4.22;3.80;;;;;;;;;;4722658;30;20101;-78
2023/07/10 08:02:51;;;;;;;3.58;3.28;;;;;;;;;;4731684;30;20052;-77
2023/07/10 08:05:18;;;;;;;4.10;3.80;;;;;;;;;;4724376;30;20140;-76
2023/07/10 08:08:03;;;;;;;3.90;3.63;;;;;;;;;;4720314;30;20049;-77
2023/07/10 08:10:38;;;;;;;4.22;3.92;;;;;;;;;;4726093;30;20063;-76
2023/07/10 08:13:06;;;;;;;4.10;3.70;;;;;;;;;;4724170;30;20056;-76
2023/07/10 08:15:33;;;;;;;4.05;3.75;;;;;;;;;;4730514;30;20052;-76
2023/07/10 08:18:00;;;;;;;4.20;3.90;;;;;;;;;;4727701;30;20210;-76
2023/07/10 08:20:28;;;;;;;4.45;4.05;;;;;;;;;;4727145;30;20084;-76
2023/07/10 08:22:55;;;;;;;3.90;3.65;;;;;;;;;;4726704;30;20061;-76
2023/07/10 08:25:23;;;;;;;4.10;3.80;;;;;;;;;;4722167;30;20056;-77
2023/07/10 08:27:51;;;;;;;4.30;3.65;;;;;;;;;;4728970;30;20114;-76
2023/07/10 08:30:18;;;;;;;3.67;3.47;;;;;;;;;;4724751;30;20052;-77
2023/07/10 08:32:45;;;;;;;4.22;3.63;;;;;;;;;;4726380;30;20075;-76
2023/07/10 08:35:13;;;;;;;4.20;3.80;;;;;;;;;;4726329;30;20448;-76
2023/07/10 08:37:41;;;;;;;4.15;3.75;;;;;;;;;;4721987;30;20044;-77
2023/07/10 08:40:15;;;;;;;4.18;3.78;;;;;;;;;;4728802;30;20984;-76
2023/07/10 08:42:43;;;;;;;3.90;3.65;;;;;;;;;;4717899;30;20547;-77
2023/07/10 08:45:19;;;;;;;3.50;3.20;;;;;;;;;;4718117;30;20525;-77
2023/07/10 08:47:50;;;;;;;4.40;4.10;;;;;;;;;;4723916;30;20079;-77
2023/07/10 08:50:29;;;;;;;3.53;3.33;;;;;;;;;;4724101;30;20049;-78
2023/07/10 08:52:56;;;;;;;3.58;3.28;;;;;;;;;;4724397;30;20404;-77
2023/07/10 08:55:31;;;;;;;3.25;2.95;;;;;;;;;;4725127;30;20064;-76
2023/07/10 08:57:59;;;;;;;3.53;3.22;;;;;;;;;;4725944;30;20467;-77
2023/07/10 09:00:28;;;;;;;3.70;3.40;;;;;;;;;;4725558;30;20511;-77
2023/07/10 09:03:13;;;;;;;3.97;3.53;;;;;;;;;;4726877;30;20048;-77
2023/07/10 09:05:44;;;;;;;3.30;3.05;;;;;;;;;;4718739;30;20465;-77
2023/07/10 09:08:14;;;;;;;3.70;3.40;;;;;;;;;;4727296;30;20060;-77
2023/07/10 09:10:48;;;;;;;3.20;3.00;;;;;;;;;;4727406;30;20339;-77
2023/07/10 09:13:25;;;;;;;3.85;3.55;;;;;;;;;;4727875;30;20053;-76
2023/07/10 09:15:57;;;;;;;3.33;3.08;;;;;;;;;;4728071;30;20071;-77
2023/07/10 09:18:29;;;;;;;3.38;3.17;;;;;;;;;;4726230;30;20075;-77
2023/07/10 09:21:00;;;;;;;3.45;3.25;;;;;;;;;;4727050;30;20065;-77
2023/07/10 09:23:29;;;;;;;5.07;3.88;;;;;;;;;;4726959;30;20059;-77
2023/07/10 09:26:13;;;;;;;6.32;3.33;;;;;;;;;;4727205;30;20254;-77
2023/07/10 09:28:41;;;;;;;4.63;3.15;;;;;;;;;;4728115;30;20056;-77
2023/07/10 09:31:09;;;;;;;3.50;3.20;;;;;;;;;;4727603;30;20048;-76
2023/07/10 09:33:37;;;;;;;3.90;3.53;;;;;;;;;;4727863;30;20056;-76
2023/07/10 09:36:12;;;;;;;3.25;3.05;;;;;;;;;;4728060;30;20080;-76
2023/07/10 09:38:42;;;;;;;3.60;3.30;;;;;;;;;;4727980;30;20532;-76
2023/07/10 09:41:13;;;;;;;4.35;3.28;;;;;;;;;;4727722;30;20650;-76
2023/07/10 09:43:40;;;;;;;;;;;;;;;;;;4727760;30;20110;-76
2023/07/10 09:46:11;;;;;;;3.38;3.10;;;;;;;;;;4747040;24;19926;-84
2023/07/10 09:48:39;;;;;;;5.82;3.55;;;;;;;;;;4750390;30;20051;-85
2023/07/10 09:51:08;;;;;;;4.22;3.78;;;;;;;;;;4752048;30;20130;-87
2023/07/10 09:53:45;;;;;;;4.30;3.38;;;;;;;;;;4750575;30;20055;-84
2023/07/10 09:56:20;;;;;;;4.88;3.60;;;;;;;;;;4752086;30;20063;-86
2023/07/10 09:58:48;;;;;;;3.70;3.40;;;;;;;;;;4752851;30;20495;-84
2023/07/10 10:01:15;;;;;;;3.70;3.50;;;;;;;;;;4735235;30;20081;-86
2023/07/10 10:03:42;;;;;;;4.50;3.97;;;;;;;;;;4750400;30;20113;-86
2023/07/10 10:06:20;;;;;;;3.72;3.40;;;;;;;;;;4750138;30;20052;-84
2023/07/10 10:08:48;;;;;;;3.95;3.55;;;;;;;;;;4744632;30;20040;-86
2023/07/10 10:11:17;;;;;;;4.43;4.03;;;;;;;;;;4756830;30;20500;-87
2023/07/10 10:13:47;;;;;;;4.20;3.80;;;;;;;;;;4743676;30;20059;-85
2023/07/10 10:16:22;;;;;;;6.25;3.30;;;;;;;;;;4748790;30;20055;-85
2023/07/10 10:18:52;;;;;;;3.15;2.95;;;;;;;;;;4749996;30;20511;-84
2023/07/10 10:21:20;;;;;;;3.60;3.28;;;;;;;;;;4750548;30;20056;-86
2023/07/10 10:23:48;;;;;;;3.30;3.10;;;;;;;;;;4750735;30;20071;-84
2023/07/10 10:26:18;;;;;;;3.30;3.10;;;;;;;;;;4753362;30;20076;-85
2023/07/10 10:28:52;;;;;;;3.20;3.00;;;;;;;;;;4752814;30;20044;-85
2023/07/10 10:31:25;;;;;;;3.10;2.90;;;;;;;;;;4750434;30;20055;-88
2023/07/10 10:33:58;;;;;;;3.72;3.30;;;;;;;;;;4750095;30;20110;-83
2023/07/10 10:36:35;;;;;;;5.35;3.30;;;;;;;;;;4749501;30;20143;-83
2023/07/10 10:39:03;;;;;;;3.88;3.58;;;;;;;;;;4742919;30;20109;-83
2023/07/10 10:41:50;;;;;;;4.93;3.53;;;;;;;;;;4749165;30;20059;-82
2023/07/10 10:44:22;;;;;;;3.33;3.08;;;;;;;;;;4747878;30;20052;-83
2023/07/10 10:46:55;;;;;;;4.03;3.72;;;;;;;;;;4749400;30;20056;-84
2023/07/10 10:49:23;;;;;;;3.40;3.20;;;;;;;;;;4747489;30;20207;-84
2023/07/10 10:51:56;;;;;;;4.10;3.60;;;;;;;;;;4745884;30;20515;-84
2023/07/10 10:54:33;;;;;;;3.65;3.35;;;;;;;;;;4746013;30;20168;-83
2023/07/10 10:57:17;;;;;;;3.83;3.28;;;;;;;;;;4741918;30;20118;-85
2023/07/10 11:00:00;;;;;;;4.97;4.05;;;;;;;;;;4746511;30;20059;-83
2023/07/10 11:02:28;;;;;;;4.68;4.28;;;;;;;;;;4748434;30;20072;-83
2023/07/10 11:05:02;;;;;;;3.67;3.45;;;;;;;;;;4750208;30;20052;-85
2023/07/10 11:07:31;;;;;;;3.50;3.30;;;;;;;;;;4748323;30;20055;-86
2023/07/10 11:10:00;;;;;;;3.65;3.35;;;;;;;;;;4749536;30;20409;-83
2023/07/10 11:12:32;;;;;;;4.78;3.90;;;;;;;;;;4749250;30;20063;-84
2023/07/10 11:15:11;;;;;;;4.55;4.25;;;;;;;;;;4748341;30;20075;-83
2023/07/10 11:17:39;;;;;;;3.60;3.30;;;;;;;;;;4749341;30;20131;-85
2023/07/10 11:20:07;;;;;;;3.80;3.35;;;;;;;;;;4749930;30;20054;-87
2023/07/10 11:22:35;;;;;;;6.00;3.40;;;;;;;;;;4749689;30;20052;-83
2023/07/10 11:25:02;;;;;;;3.78;3.47;;;;;;;;;;4749571;30;20091;-87
2023/07/10 11:27:30;;;;;;;4.07;3.50;;;;;;;;;;4748485;30;20060;-88
2023/07/10 11:30:11;;;;;;;3.33;3.13;;;;;;;;;;4749703;30;20120;-83
2023/07/10 11:32:55;;;;;;;4.20;3.80;;;;;;;;;;4749103;30;20068;-84
2023/07/10 11:35:23;;;;;;;3.50;3.20;;;;;;;;;;4748770;30;20063;-85
2023/07/10 11:37:50;;;;;;;4.03;3.72;;;;;;;;;;4751917;30;20067;-83
2023/07/10 11:40:24;;;;;;;3.47;3.20;;;;;;;;;;4749477;30;20052;-83
2023/07/10 11:42:51;;;;;;;4.43;3.30;;;;;;;;;;4749016;30;20532;-85
2023/07/10 11:45:25;;;;;;;3.78;3.33;;;;;;;;;;4748708;30;20427;-84
2023/07/10 11:47:53;;;;;;;4.35;3.95;;;;;;;;;;4750405;30;20044;-85
2023/07/10 11:50:24;;;;;;;3.25;3.05;;;;;;;;;;4750250;30;20175;-84
2023/07/10 11:53:06;;;;;;;3.00;2.70;;;;;;;;;;4750379;30;20044;-89
2023/07/10 11:55:41;;;;;;;3.25;2.80;;;;;;;;;;4748066;30;20075;-92
2023/07/10 11:58:29;;;;;;;3.47;2.65;;;;;;;;;;4750662;30;20052;-83
2023/07/10 12:01:14;;;;;;;3.50;3.20;;;;;;;;;;4750357;30;20056;-86
2023/07/10 12:03:42;;;;;;;3.65;3.35;;;;;;;;;;4750505;30;20103;-85
2023/07/10 12:06:17;;;;;;;4.65;3.00;;;;;;;;;;4749537;30;20041;-86
2023/07/10 12:08:48;;;;;;;3.38;3.08;;;;;;;;;;4751009;30;20062;-84
2023/07/10 12:11:29;;;;;;;2.92;2.72;;;;;;;;;;4750742;30;20051;-84
2023/07/10 12:14:03;;;;;;;3.30;3.00;;;;;;;;;;4750567;30;20628;-85
2023/07/10 12:16:30;;;;;;;2.92;2.70;;;;;;;;;;4750168;30;20056;-84
2023/07/10 12:19:15;;;;;;;2.60;2.50;;;;;;;;;;4748816;30;20052;-86
2023/07/10 12:21:43;;;;;;;2.70;2.42;;;;;;;;;;4747294;30;20087;-84
2023/07/10 12:24:15;;;;;;;3.05;2.85;;;;;;;;;;4745124;30;20073;-84
2023/07/10 12:26:43;;;;;;;2.92;2.72;;;;;;;;;;4747742;30;20511;-84
2023/07/10 12:29:30;;;;;;;3.60;2.70;;;;;;;;;;4749508;30;20119;-84
2023/07/10 12:31:58;;;;;;;2.80;2.58;;;;;;;;;;4749738;30;20044;-85
2023/07/10 12:34:28;;;;;;;2.67;2.47;;;;;;;;;;4749870;30;20052;-88
2023/07/10 12:36:59;;;;;;;2.75;2.55;;;;;;;;;;4745014;30;20067;-89
2023/07/10 12:39:27;;;;;;;3.47;2.50;;;;;;;;;;4758712;30;20051;-87
2023/07/10 12:41:56;;;;;;;3.15;2.42;;;;;;;;;;4751458;30;20056;-86
2023/07/10 12:44:28;;;;;;;2.47;2.20;;;;;;;;;;4753403;30;20622;-92
2023/07/10 12:46:58;;;;;;;2.40;2.20;;;;;;;;;;4750678;30;20048;-87
2023/07/10 12:49:28;;;;;;;2.85;2.20;;;;;;;;;;4749078;30;20571;-87
2023/07/10 12:51:56;;;;;;;;;;;;;;;;;;4747422;30;20072;-93
2023/07/10 12:54:49;;;;;;;3.42;2.40;;;;;;;;;;4749758;30;19930;-94
2023/07/10 12:57:18;;;;;;;2.40;2.20;;;;;;;;;;4748071;30;20496;-88
2023/07/10 12:59:47;;;;;;;3.85;2.40;;;;;;;;;;4748684;30;20044;-87
2023/07/10 13:02:15;;;;;;;2.28;2.15;;;;;;;;;;4745386;30;20064;-86
2023/07/10 13:04:48;;;;;;;3.45;2.00;;;;;;;;;;4747854;30;20519;-88
2023/07/10 13:07:17;;;;;;;1.90;1.80;;;;;;;;;;4747868;30;20076;-88
2023/07/10 13:09:59;;;;;;;2.60;1.90;;;;;;;;;;4746037;30;20053;-87
2023/07/10 13:12:39;;;;;;;2.40;2.05;;;;;;;;;;4748092;30;20048;-87
2023/07/10 13:15:12;;;;;;;2.20;1.92;;;;;;;;;;4746825;30;20599;-88
2023/07/10 13:17:44;;;;;;;2.43;2.20;;;;;;;;;;4745931;30;20067;-84
2023/07/10 13:20:21;;;;;;;2.38;2.17;;;;;;;;;;4745578;30;20082;-84
2023/07/10 13:22:50;;;;;;;3.42;2.00;;;;;;;;;;4748817;30;20507;-85
2023/07/10 13:25:18;;;;;;;4.35;2.00;;;;;;;;;;4751729;30;20048;-85
2023/07/10 13:27:45;;;;;;;2.25;2.05;;;;;;;;;;4751586;30;20052;-85
2023/07/10 13:30:17;;;;;;;2.40;2.13;;;;;;;;;;4752155;30;20123;-85
2023/07/10 13:32:45;;;;;;;2.28;2.10;;;;;;;;;;4751775;30;20056;-84
2023/07/10 13:35:13;;;;;;;2.00;1.70;;;;;;;;;;4753425;30;20083;-84
2023/07/10 13:37:40;;;;;;;2.40;1.80;;;;;;;;;;4760620;30;20123;-84
2023/07/10 13:40:12;;;;;;;2.33;2.10;;;;;;;;;;4757118;30;20123;-85
2023/07/10 13:42:40;;;;;;;3.47;2.28;;;;;;;;;;4748463;30;20140;-85
2023/07/10 13:45:08;;;;;;;2.25;1.92;;;;;;;;;;4752797;30;20055;-89
2023/07/10 13:47:35;;;;;;;4.20;2.05;;;;;;;;;;4752510;30;20056;-87
2023/07/10 13:50:14;;;;;;;2.45;2.00;;;;;;;;;;4751089;30;20044;-87
2023/07/10 13:52:44;;;;;;;4.07;2.30;;;;;;;;;;4756140;30;20094;-91
2023/07/10 13:55:12;;;;;;;4.70;1.98;;;;;;;;;;4747310;30;20535;-87
2023/07/10 13:57:40;;;;;;;2.03;1.90;;;;;;;;;;4750689;30;20056;-88
2023/07/10 14:00:12;;;;;;;4.68;2.63;;;;;;;;;;4746227;30;20047;-86
2023/07/10 14:02:43;;;;;;;2.30;1.98;;;;;;;;;;4748889;30;20794;-85
2023/07/10 14:05:10;;;;;;;;;;;;;;;;;;4753000;30;20132;-85
2023/07/10 14:07:39;;;;;;;2.95;2.20;;;;;;;;;;4752546;30;19947;-84
2023/07/10 14:10:09;;;;;;;2.45;2.30;;;;;;;;;;4752128;30;20063;-85
2023/07/10 14:12:36;;;;;;;3.80;2.10;;;;;;;;;;4751311;30;20820;-84
2023/07/10 14:15:03;;;;;;;4.32;2.05;;;;;;;;;;4751262;30;20545;-86
2023/07/10 14:17:35;;;;;;;2.50;2.15;;;;;;;;;;4755290;30;20604;-87
2023/07/10 14:20:04;;;;;;;2.47;2.22;;;;;;;;;;4751252;30;20055;-85
2023/07/10 14:22:35;;;;;;;2.15;2.00;;;;;;;;;;4747838;30;20409;-86
2023/07/10 14:25:03;;;;;;;2.30;2.20;;;;;;;;;;4751965;30;20052;-86
2023/07/10 14:27:33;;;;;;;2.45;2.00;;;;;;;;;;4750529;30;20058;-91
2023/07/10 14:30:00;;;;;;;2.10;2.00;;;;;;;;;;4750662;30;20072;-85
2023/07/10 14:32:28;;;;;;;2.30;2.10;;;;;;;;;;4748855;30;20048;-88
2023/07/10 14:34:55;;;;;;;2.50;2.30;;;;;;;;;;4749783;30;20056;-85
2023/07/10 14:37:28;;;;;;;3.35;2.10;;;;;;;;;;4751206;30;20091;-88
2023/07/10 14:39:55;;;;;;;4.32;2.30;;;;;;;;;;4750174;30;20454;-86
2023/07/10 14:42:26;;;;;;;4.65;2.30;;;;;;;;;;4749443;30;20487;-86
2023/07/10 14:44:53;;;;;;;5.10;2.50;;;;;;;;;;4748605;30;20072;-85
2023/07/10 14:47:35;;;;;;;2.45;2.25;;;;;;;;;;4751056;30;20044;-85
2023/07/10 14:50:04;;;;;;;2.85;2.20;;;;;;;;;;4748391;30;20052;-85
2023/07/10 14:52:32;;;;;;;2.33;2.13;;;;;;;;;;4751571;30;20044;-87
2023/07/10 14:55:04;;;;;;;3.30;2.20;;;;;;;;;;4751645;30;20577;-86
2023/07/10 14:57:32;;;;;;;3.72;2.40;;;;;;;;;;4752899;30;20060;-87
2023/07/10 15:00:00;;;;;;;2.85;2.13;;;;;;;;;;4751451;30;20056;-87